createdAt,value
2022-11-21T00:02:11.366Z,20.20
2022-11-21T00:04:37.985Z,18.57
2022-11-21T00:07:11.390Z,20.07
2022-11-21T00:09:38.112Z,20.30
2022-11-21T00:12:11.401Z,20.50
2022-11-21T00:14:38.080Z,20.13
2022-11-21T00:17:11.334Z,19.53
2022-11-21T00:19:37.907Z,19.33
2022-11-21T00:22:11.307Z,19.13
2022-11-21T00:24:44.301Z,18.47
2022-11-21T00:27:10.875Z,19.03
2022-11-21T00:29:44.318Z,20.20
2022-11-21T00:32:31.299Z,19.67
2022-11-21T00:35:04.308Z,17.80
2022-11-21T00:37:32.676Z,18.80
2022-11-21T00:40:06.333Z,19.17
2022-11-21T00:42:32.979Z,18.67
2022-11-21T00:45:06.306Z,19.23
2022-11-21T00:47:32.902Z,20.43
2022-11-21T00:50:06.304Z,17.75
2022-11-21T00:52:32.977Z,18.98
2022-11-21T00:55:06.308Z,19.20
2022-11-21T00:57:32.919Z,19.70
2022-11-21T01:00:06.308Z,18.80
2022-11-21T01:02:33.295Z,19.85
2022-11-21T01:04:59.880Z,20.00
2022-11-21T01:07:33.347Z,19.17
2022-11-21T01:09:59.940Z,19.35
2022-11-21T01:12:33.320Z,18.27
2022-11-21T01:14:59.956Z,19.98
2022-11-21T01:17:33.323Z,18.05
2022-11-21T01:19:59.923Z,19.42
2022-11-21T01:22:33.300Z,19.88
2022-11-21T01:24:59.903Z,19.10
2022-11-21T01:27:33.303Z,19.10
2022-11-21T01:29:59.871Z,19.50
2022-11-21T01:32:33.379Z,18.80
2022-11-21T01:35:07.292Z,19.65
2022-11-21T01:37:40.318Z,18.92
2022-11-21T01:40:07.480Z,19.10
2022-11-21T01:43:00.306Z,18.58
2022-11-21T01:45:48.852Z,18.08
2022-11-21T01:48:22.326Z,18.73
2022-11-21T01:50:49.035Z,20.75
2022-11-21T01:53:22.324Z,20.50
2022-11-21T01:55:49.690Z,21.02
2022-11-21T01:58:16.852Z,20.50
2022-11-21T02:00:53.347Z,20.20
2022-11-21T02:03:24.109Z,19.63
2022-11-21T02:06:01.301Z,20.65
2022-11-21T02:08:28.631Z,19.48
2022-11-21T02:11:07.316Z,19.07
2022-11-21T02:13:33.957Z,19.50
2022-11-21T02:16:07.306Z,17.80
2022-11-21T02:18:33.976Z,18.67
2022-11-21T02:21:18.306Z,18.48
2022-11-21T02:24:01.028Z,19.10
2022-11-21T02:26:34.312Z,19.48
2022-11-21T02:29:00.955Z,18.38
2022-11-21T02:31:27.684Z,19.20
2022-11-21T02:34:01.284Z,18.10
2022-11-21T02:36:49.400Z,19.60
2022-11-21T02:39:43.304Z,19.25
2022-11-21T02:42:18.495Z,18.48
2022-11-21T02:45:00.313Z,19.58
2022-11-21T02:47:28.342Z,19.85
2022-11-21T02:50:35.295Z,18.88
2022-11-21T02:53:10.298Z,18.70
2022-11-21T02:55:43.359Z,19.38
2022-11-21T02:58:10.954Z,18.42
2022-11-21T03:00:46.316Z,19.60
2022-11-21T03:03:13.046Z,19.85
2022-11-21T03:05:46.291Z,19.80
2022-11-21T03:08:12.931Z,19.43
2022-11-21T03:10:46.312Z,18.85
2022-11-21T03:13:19.289Z,19.13
2022-11-21T03:15:45.867Z,20.63
2022-11-21T03:18:19.287Z,20.50
2022-11-21T03:20:45.859Z,19.38
2022-11-21T03:23:19.286Z,20.75
2022-11-21T03:25:45.860Z,20.42
2022-11-21T03:28:19.304Z,19.63
2022-11-21T03:30:46.928Z,20.80
2022-11-21T03:33:26.294Z,19.90
2022-11-21T03:35:59.334Z,18.45
2022-11-21T03:38:32.283Z,20.20
2022-11-21T03:41:03.891Z,19.77
2022-11-21T03:43:37.301Z,19.80
2022-11-21T03:46:03.893Z,20.27
2022-11-21T03:48:37.291Z,21.85
2022-11-21T03:51:03.932Z,19.95
2022-11-21T03:53:37.315Z,21.13
2022-11-21T03:56:10.288Z,20.42
2022-11-21T03:58:36.887Z,21.50
2022-11-21T04:01:10.346Z,21.27
2022-11-21T04:03:36.952Z,20.23
2022-11-21T04:06:10.284Z,21.13
2022-11-21T04:08:36.881Z,20.92
2022-11-21T04:11:10.290Z,21.10
2022-11-21T04:13:37.239Z,22.92
2022-11-21T04:16:10.297Z,21.65
2022-11-21T04:18:37.299Z,22.35
2022-11-21T04:21:14.302Z,21.30
2022-11-21T04:23:40.923Z,22.40
2022-11-21T04:26:07.568Z,21.52
2022-11-21T04:28:40.292Z,21.92
2022-11-21T04:31:28.338Z,22.30
2022-11-21T04:34:08.317Z,22.33
2022-11-21T04:36:41.328Z,23.05
2022-11-21T04:39:14.294Z,22.87
2022-11-21T04:41:40.872Z,21.90
2022-11-21T04:44:14.255Z,22.67
2022-11-21T04:46:40.819Z,22.58
2022-11-21T04:49:14.288Z,22.23
2022-11-21T04:51:40.906Z,23.27
2022-11-21T04:54:14.300Z,21.85
2022-11-21T04:56:40.889Z,23.25
2022-11-21T04:59:14.294Z,22.27
2022-11-21T05:01:40.899Z,24.23
2022-11-21T05:04:14.292Z,23.23
2022-11-21T05:06:40.875Z,21.73
2022-11-21T05:09:07.462Z,23.35
2022-11-21T05:11:59.292Z,23.80
2022-11-21T05:14:26.897Z,23.37
2022-11-21T05:17:07.271Z,22.73
2022-11-21T05:19:33.887Z,22.40
2022-11-21T05:22:07.279Z,21.65
2022-11-21T05:24:33.874Z,24.20
2022-11-21T05:27:07.288Z,23.13
2022-11-21T05:29:33.863Z,23.43
2022-11-21T05:32:07.300Z,22.85
2022-11-21T05:34:54.273Z,22.03
2022-11-21T05:37:28.262Z,22.85
2022-11-21T05:39:54.874Z,22.92
2022-11-21T05:42:48.282Z,21.70
2022-11-21T05:45:14.936Z,24.50
2022-11-21T05:47:48.275Z,21.77
2022-11-21T05:50:14.887Z,21.05
2022-11-21T05:52:48.281Z,21.70
2022-11-21T05:55:15.016Z,23.70
2022-11-21T05:57:48.293Z,22.75
2022-11-21T06:00:15.529Z,22.92
2022-11-21T06:03:07.311Z,22.00
2022-11-21T06:05:33.925Z,21.23
2022-11-21T06:08:07.283Z,21.33
2022-11-21T06:10:33.926Z,22.17
2022-11-21T06:13:01.629Z,22.25
2022-11-21T06:15:35.275Z,21.55
2022-11-21T06:18:01.849Z,22.43
2022-11-21T06:20:35.277Z,21.47
2022-11-21T06:23:01.846Z,22.70
2022-11-21T06:25:35.274Z,20.23
2022-11-21T06:28:01.878Z,23.67
2022-11-21T06:30:35.282Z,22.02
2022-11-21T06:33:22.260Z,21.57
2022-11-21T06:35:55.273Z,22.57
2022-11-21T06:38:21.868Z,21.83
2022-11-21T06:40:55.266Z,22.90
2022-11-21T06:43:21.861Z,24.00
2022-11-21T06:45:55.273Z,21.17
2022-11-21T06:48:28.276Z,27.65
2022-11-21T06:50:54.912Z,24.52
2022-11-21T06:53:28.288Z,24.50
2022-11-21T06:55:59.774Z,23.17
2022-11-21T06:58:33.309Z,24.45
2022-11-21T07:01:07.949Z,24.58
2022-11-21T07:03:41.331Z,25.35
2022-11-21T07:06:07.992Z,24.27
2022-11-21T07:08:42.326Z,25.10
2022-11-21T07:11:29.296Z,26.20
2022-11-21T07:14:08.860Z,24.02
2022-11-21T07:16:35.839Z,23.85
2022-11-21T07:19:09.280Z,24.80
2022-11-21T07:21:35.923Z,25.38
2022-11-21T07:24:09.322Z,24.38
2022-11-21T07:26:35.935Z,23.77
2022-11-21T07:29:09.282Z,23.10
2022-11-21T07:31:42.262Z,24.35
2022-11-21T07:34:15.693Z,24.90
2022-11-21T07:36:49.269Z,28.17
2022-11-21T07:39:15.915Z,27.30
2022-11-21T07:41:49.292Z,25.65
2022-11-21T07:44:15.887Z,23.30
2022-11-21T07:46:49.265Z,23.00
2022-11-21T07:49:15.860Z,22.63
2022-11-21T07:51:49.269Z,22.63
2022-11-21T07:54:15.899Z,21.48
2022-11-21T07:56:49.305Z,22.23
2022-11-21T07:59:15.909Z,23.35
2022-11-21T08:01:49.339Z,23.65
2022-11-21T08:04:15.997Z,21.90
2022-11-21T08:06:42.590Z,22.35
2022-11-21T08:09:15.287Z,22.98
2022-11-21T08:11:41.886Z,22.20
2022-11-21T08:14:15.295Z,21.42
2022-11-21T08:16:41.878Z,22.75
2022-11-21T08:19:15.297Z,22.48
2022-11-21T08:21:41.870Z,22.27
2022-11-21T08:24:20.274Z,22.30
2022-11-21T08:26:47.442Z,20.40
2022-11-21T08:29:24.301Z,21.95
2022-11-21T08:31:57.256Z,24.75
2022-11-21T08:34:30.305Z,26.60
2022-11-21T08:37:10.271Z,24.50
2022-11-21T08:39:36.901Z,24.67
2022-11-21T08:42:10.284Z,24.05
2022-11-21T08:44:36.926Z,24.45
2022-11-21T08:47:11.314Z,24.60
2022-11-21T08:49:44.277Z,27.00
2022-11-21T08:52:10.863Z,24.55
2022-11-21T08:54:44.271Z,24.25
2022-11-21T08:57:11.105Z,23.35
2022-11-21T08:59:44.323Z,25.60
2022-11-21T09:02:18.271Z,25.35
2022-11-21T09:04:44.968Z,34.60
2022-11-21T09:07:18.306Z,28.27
2022-11-21T09:09:44.972Z,27.30
2022-11-21T09:12:18.247Z,27.67
2022-11-21T09:15:03.700Z,26.60
2022-11-21T09:17:55.280Z,27.63
2022-11-21T09:20:22.238Z,28.38
2022-11-21T09:22:55.285Z,26.63
2022-11-21T09:25:21.957Z,28.23
2022-11-21T09:27:55.285Z,27.85
2022-11-21T09:30:28.285Z,27.40
2022-11-21T09:33:05.322Z,29.55
2022-11-21T09:35:45.261Z,28.80
2022-11-21T09:38:11.911Z,29.88
2022-11-21T09:40:51.255Z,30.15
2022-11-21T09:43:20.913Z,30.35
2022-11-21T09:46:03.289Z,30.70
2022-11-21T09:48:36.137Z,27.45
2022-11-21T09:51:18.250Z,27.98
2022-11-21T09:54:07.432Z,27.00
2022-11-21T09:56:47.249Z,27.53
2022-11-21T09:59:35.058Z,29.20
2022-11-21T10:02:09.266Z,27.60
2022-11-21T10:04:35.930Z,29.92
2022-11-21T10:07:14.293Z,31.17
2022-11-21T10:10:29.723Z,28.92
2022-11-21T10:13:16.265Z,31.88
2022-11-21T10:16:50.531Z,29.13
2022-11-21T10:19:47.273Z,30.73
2022-11-21T10:22:36.642Z,30.90
2022-11-21T10:25:26.542Z,30.38
2022-11-21T10:28:04.768Z,29.77
2022-11-21T10:30:38.273Z,29.90
2022-11-21T10:33:18.262Z,30.90
2022-11-21T10:36:01.240Z,30.98
2022-11-21T10:38:29.171Z,30.25
2022-11-21T10:41:20.240Z,31.27
2022-11-21T10:44:42.255Z,31.00
2022-11-21T10:47:30.040Z,26.55
2022-11-21T10:50:31.264Z,30.80
2022-11-21T10:53:39.726Z,31.48
2022-11-21T10:56:21.260Z,28.67
2022-11-21T10:58:59.244Z,32.35
2022-11-21T11:01:34.327Z,31.10
2022-11-21T11:04:27.156Z,29.20
2022-11-21T11:07:01.305Z,31.75
2022-11-21T11:09:33.496Z,33.10
2022-11-21T11:12:30.250Z,29.90
2022-11-21T11:14:58.057Z,31.27
2022-11-21T11:17:40.250Z,30.85
2022-11-21T11:20:28.189Z,34.33
2022-11-21T11:23:01.284Z,31.45
2022-11-21T11:25:27.916Z,34.35
2022-11-21T11:28:02.231Z,29.33
2022-11-21T11:30:36.893Z,37.33
2022-11-21T11:33:10.259Z,38.03
2022-11-21T11:35:44.270Z,31.08
2022-11-21T11:38:19.235Z,32.65
2022-11-21T11:40:45.940Z,32.85
2022-11-21T11:44:07.434Z,30.45
2022-11-21T11:47:05.965Z,28.15
2022-11-21T11:50:18.358Z,26.63
2022-11-21T11:53:06.069Z,26.55
2022-11-21T11:56:02.352Z,27.58
2022-11-21T11:58:38.386Z,28.25
2022-11-21T12:01:27.338Z,27.95
2022-11-21T12:04:10.547Z,30.95
2022-11-21T12:10:08.246Z,29.88
2022-11-21T12:12:41.550Z,31.20
2022-11-21T12:15:36.356Z,29.05
2022-11-21T12:18:29.316Z,29.52
2022-11-21T12:21:09.290Z,27.77
2022-11-21T12:23:41.636Z,28.08
2022-11-21T12:26:41.283Z,28.08
2022-11-21T12:29:23.417Z,28.13
2022-11-21T12:32:15.247Z,28.35
2022-11-21T12:35:02.412Z,26.98
2022-11-21T12:38:09.831Z,25.95
2022-11-21T12:41:31.028Z,24.15
2022-11-21T12:44:41.407Z,24.77
2022-11-21T12:47:29.519Z,21.20
2022-11-21T12:50:44.249Z,23.90
2022-11-21T12:53:48.565Z,22.17
2022-11-21T12:56:35.256Z,20.90
2022-11-21T12:59:02.994Z,21.20
2022-11-21T13:01:52.296Z,20.88
2022-11-21T13:04:32.354Z,21.63
2022-11-21T13:09:39.864Z,18.55
2022-11-21T13:12:29.515Z,19.95
2022-11-21T13:15:09.197Z,19.98
2022-11-21T13:17:53.291Z,18.35
2022-11-21T13:20:25.948Z,18.95
2022-11-21T13:23:05.348Z,18.00
2022-11-21T13:25:31.899Z,18.05
2022-11-21T13:28:36.376Z,16.95
2022-11-21T13:31:23.713Z,18.23
2022-11-21T13:34:04.283Z,18.38
2022-11-21T13:36:38.835Z,18.17
2022-11-21T13:39:37.326Z,17.60
2022-11-21T13:45:04.313Z,19.25
2022-11-21T13:48:03.522Z,19.13
2022-11-21T13:50:53.385Z,16.70
2022-11-21T13:53:30.686Z,17.33
2022-11-21T13:56:11.274Z,17.73
2022-11-21T13:59:13.111Z,18.75
2022-11-21T14:02:12.365Z,19.13
2022-11-21T14:05:04.171Z,18.88
2022-11-21T14:07:40.512Z,18.27
2022-11-21T14:10:25.539Z,18.50
2022-11-21T14:13:01.267Z,17.30
2022-11-21T14:15:52.451Z,17.08
2022-11-21T14:18:31.303Z,16.77
2022-11-21T14:21:00.554Z,15.63
2022-11-21T14:23:40.303Z,15.68
2022-11-21T14:26:14.677Z,13.75
2022-11-21T14:28:48.411Z,16.63
2022-11-21T14:31:21.379Z,15.60
2022-11-21T14:34:11.230Z,15.80
2022-11-21T14:36:45.275Z,16.73
2022-11-21T14:42:13.564Z,15.18
2022-11-21T14:44:40.804Z,15.35
2022-11-21T14:47:26.872Z,15.13
2022-11-21T14:49:56.483Z,15.32
2022-11-21T14:52:35.250Z,15.52
2022-11-21T14:58:02.139Z,16.42
2022-11-21T15:03:24.130Z,17.10
2022-11-21T15:06:08.243Z,16.33
2022-11-21T15:11:35.384Z,16.63
2022-11-21T15:14:17.617Z,17.63
2022-11-21T15:16:56.329Z,18.23
2022-11-21T15:19:28.698Z,17.75
2022-11-21T15:22:04.442Z,17.35
2022-11-21T15:24:42.973Z,15.77
2022-11-21T15:27:34.299Z,17.45
2022-11-21T15:30:09.734Z,19.00
2022-11-21T15:33:10.293Z,18.75
2022-11-21T15:35:47.881Z,20.45
2022-11-21T15:38:58.324Z,19.83
2022-11-21T15:41:31.455Z,18.73
2022-11-21T15:44:07.399Z,19.55
2022-11-21T15:46:48.308Z,19.15
2022-11-21T15:52:09.741Z,20.65
2022-11-21T15:54:36.756Z,20.08
2022-11-21T15:57:03.393Z,21.10
2022-11-21T15:59:37.297Z,19.77
2022-11-21T16:02:03.980Z,20.58
2022-11-21T16:04:37.325Z,20.48
2022-11-21T16:07:10.309Z,20.10
2022-11-21T16:09:38.702Z,20.48
2022-11-21T16:12:05.398Z,21.48
2022-11-21T16:14:38.221Z,21.85
2022-11-21T16:17:11.293Z,20.55
2022-11-21T16:19:37.911Z,21.15
2022-11-21T16:22:04.518Z,21.33
2022-11-21T16:24:37.313Z,22.00
2022-11-21T16:27:03.948Z,22.23
2022-11-21T16:29:30.960Z,19.38
2022-11-21T16:32:04.273Z,20.00
2022-11-21T16:34:37.240Z,18.17
2022-11-21T16:37:17.304Z,20.50
2022-11-21T16:39:43.978Z,21.08
2022-11-21T16:42:11.399Z,19.90
2022-11-21T16:44:44.215Z,19.88
2022-11-21T16:47:11.442Z,20.42
2022-11-21T16:49:53.260Z,20.67
2022-11-21T16:52:19.889Z,20.20
2022-11-21T16:54:53.253Z,19.00
2022-11-21T16:57:26.255Z,20.75
2022-11-21T17:00:00.689Z,18.75
2022-11-21T17:02:27.498Z,18.23
2022-11-21T17:05:00.238Z,21.10
2022-11-21T17:07:33.308Z,20.40
2022-11-21T17:10:00.210Z,20.02
2022-11-21T17:12:33.209Z,22.27
2022-11-21T17:14:59.895Z,21.15
2022-11-21T17:17:33.269Z,22.35
2022-11-21T17:20:00.028Z,23.98
2022-11-21T17:22:33.327Z,23.05
2022-11-21T17:25:00.055Z,21.60
2022-11-21T17:27:26.914Z,21.38
2022-11-21T17:30:00.281Z,22.30
2022-11-21T17:32:33.357Z,23.50
2022-11-21T17:35:14.234Z,21.13
2022-11-21T17:37:47.273Z,20.40
2022-11-21T17:40:14.139Z,20.83
2022-11-21T17:42:50.242Z,20.90
2022-11-21T17:45:23.231Z,21.73
2022-11-21T17:47:56.303Z,21.17
2022-11-21T17:50:29.276Z,20.33
2022-11-21T17:52:57.338Z,20.17
2022-11-21T17:55:30.278Z,21.60
2022-11-21T17:57:56.874Z,21.70
2022-11-21T18:00:23.855Z,22.20
2022-11-21T18:02:57.327Z,20.63
2022-11-21T18:05:23.959Z,23.17
2022-11-21T18:07:57.232Z,22.10
2022-11-21T18:10:43.662Z,23.13
2022-11-21T18:13:17.220Z,24.27
2022-11-21T18:15:50.349Z,24.23
2022-11-21T18:18:16.952Z,21.10
2022-11-21T18:20:50.288Z,23.27
2022-11-21T18:23:24.210Z,21.67
2022-11-21T18:25:51.190Z,20.63
2022-11-21T18:28:17.802Z,22.37
2022-11-21T18:30:51.253Z,23.90
2022-11-21T18:33:24.264Z,23.27
2022-11-21T18:35:57.222Z,23.87
2022-11-21T18:38:51.388Z,22.73
2022-11-21T18:41:22.875Z,24.10
2022-11-21T18:43:58.471Z,25.25
2022-11-21T18:46:33.235Z,23.90
2022-11-21T18:49:04.523Z,23.13
2022-11-21T18:51:32.330Z,22.03
2022-11-21T18:54:14.248Z,21.30
2022-11-21T18:56:41.051Z,21.37
2022-11-21T18:59:07.745Z,20.57
2022-11-21T19:01:43.423Z,21.30
2022-11-21T19:04:10.387Z,20.60
2022-11-21T19:06:36.997Z,20.60
2022-11-21T19:09:10.306Z,19.13
2022-11-21T19:11:37.019Z,19.47
2022-11-21T19:14:10.210Z,17.60
2022-11-21T19:16:36.832Z,18.65
2022-11-21T19:22:01.249Z,19.67
2022-11-21T19:24:34.221Z,18.27
2022-11-21T19:27:00.841Z,18.92
2022-11-21T19:29:34.258Z,19.70
2022-11-21T19:32:00.911Z,21.40
2022-11-21T19:34:34.207Z,22.42
2022-11-21T19:37:07.207Z,21.02
2022-11-21T19:39:33.811Z,20.02
2022-11-21T19:42:07.222Z,19.08
2022-11-21T19:44:40.229Z,22.20
2022-11-21T19:47:06.880Z,20.10
2022-11-21T19:49:33.491Z,19.88
2022-11-21T19:52:06.254Z,16.55
2022-11-21T19:54:39.288Z,18.73
2022-11-21T19:57:14.071Z,18.70
2022-11-21T19:59:46.266Z,18.38
2022-11-21T20:02:24.186Z,16.73
2022-11-21T20:04:50.884Z,17.63
2022-11-21T20:07:17.580Z,16.45
2022-11-21T20:09:51.216Z,17.00
2022-11-21T20:12:18.203Z,17.83
2022-11-21T20:14:44.809Z,17.42
2022-11-21T20:17:18.263Z,17.55
2022-11-21T20:19:50.448Z,16.73
2022-11-21T20:22:17.669Z,18.38
2022-11-21T20:24:52.032Z,18.30
2022-11-21T20:27:18.753Z,17.90
2022-11-21T20:29:45.332Z,20.53
2022-11-21T20:32:18.216Z,18.30
2022-11-21T20:34:51.595Z,19.10
2022-11-21T20:37:25.251Z,20.65
2022-11-21T20:39:51.846Z,20.83
2022-11-21T20:42:25.227Z,22.05
2022-11-21T20:47:45.203Z,22.17
2022-11-21T20:50:25.754Z,22.80
2022-11-21T20:55:51.785Z,21.07
2022-11-21T20:58:25.246Z,21.57
2022-11-21T21:00:51.835Z,21.43
2022-11-21T21:03:18.422Z,21.63
2022-11-21T21:05:51.200Z,21.43
2022-11-21T21:08:17.923Z,22.60
2022-11-21T21:11:05.287Z,22.00
2022-11-21T21:13:38.244Z,21.30
2022-11-21T21:16:19.229Z,22.50
2022-11-21T21:18:52.018Z,20.83
2022-11-21T21:21:32.260Z,23.07
2022-11-21T21:24:06.705Z,21.55
2022-11-21T21:26:52.293Z,23.63
2022-11-21T21:29:27.429Z,24.93
2022-11-21T21:32:01.183Z,23.57
2022-11-21T21:34:34.245Z,23.73
2022-11-21T21:37:07.208Z,23.53
2022-11-21T21:39:40.222Z,23.93
2022-11-21T21:42:06.812Z,22.47
2022-11-21T21:44:33.909Z,23.00
2022-11-21T21:47:07.186Z,23.90
2022-11-21T21:49:40.221Z,22.70
2022-11-21T21:52:13.189Z,23.70
2022-11-21T21:54:46.213Z,22.90
2022-11-21T21:57:12.838Z,23.90
2022-11-21T21:59:46.187Z,25.37
2022-11-21T22:02:12.868Z,25.77
2022-11-21T22:04:51.646Z,23.50
2022-11-21T22:07:25.318Z,21.45
2022-11-21T22:09:58.365Z,23.07
2022-11-21T22:12:31.186Z,21.27
2022-11-21T22:14:57.801Z,21.40
2022-11-21T22:17:31.199Z,23.27
2022-11-21T22:19:57.811Z,22.40
2022-11-21T22:22:31.198Z,21.77
2022-11-21T22:25:04.194Z,23.23
2022-11-21T22:27:31.781Z,23.00
2022-11-21T22:29:58.522Z,22.17
2022-11-21T22:32:31.246Z,22.47
2022-11-21T22:35:18.183Z,23.87
2022-11-21T22:37:51.208Z,23.53
2022-11-21T22:40:17.953Z,25.60
2022-11-21T22:42:51.188Z,24.17
2022-11-21T22:45:17.912Z,21.47
2022-11-21T22:47:51.195Z,23.07
2022-11-21T22:50:17.986Z,21.53
2022-11-21T22:52:44.736Z,20.97
2022-11-21T22:55:18.231Z,21.23
2022-11-21T22:57:44.886Z,20.37
2022-11-21T23:00:12.136Z,21.43
2022-11-21T23:02:45.245Z,21.50
2022-11-21T23:05:18.205Z,20.93
2022-11-21T23:07:45.063Z,21.57
2022-11-21T23:10:19.265Z,21.20
2022-11-21T23:12:59.221Z,20.70
2022-11-21T23:17:52.756Z,22.50
2022-11-21T23:20:26.355Z,22.90
2022-11-21T23:22:55.691Z,22.20
2022-11-21T23:25:22.286Z,23.13
2022-11-21T23:27:55.192Z,23.70
2022-11-21T23:30:21.792Z,23.93
2022-11-21T23:32:48.382Z,24.60
2022-11-21T23:35:22.186Z,23.13
2022-11-21T23:38:02.262Z,24.60
2022-11-21T23:43:02.215Z,23.63
2022-11-21T23:45:29.121Z,22.97
2022-11-21T23:48:09.177Z,23.93
2022-11-21T23:53:02.679Z,24.60
2022-11-21T23:55:36.188Z,24.60
2022-11-21T23:58:02.843Z,23.93
